SAVANNAH NWR GA US current weather conditions

sailwx.info

Wind from 028 at 6 knots gusting 11

Air temperature 7.2° C
Dewpoint 2.7° C

Last reported at 2020-Jan-18 10:23 UTC.
Time now 2020-Jan-18 11:20 UTC

Location: N 32°06' W 081°05'.
View on Google Maps.

See reports from other nearby stations

  
Tides and Currents Weather Stations Pressure Air Temp Water Temp Dewpoint Dewpoint Depression Visibility Wind Speed Wind Dir Waves Ship Positions
date/time (UTC)wind fromknots sea level pressurealtimeterstation pressurevisibilityair tempwater tempwave heightnotes
2020-Jan-18 10:23 028 6 gusting 11 7.2
2020-Jan-18 09:23 027 6 gusting 12 6.7
2020-Jan-18 08:23 023 6 gusting 9 7.2
2020-Jan-18 07:23 028 6 gusting 9 7.2
2020-Jan-18 06:23 036 6 gusting 10 7.2
2020-Jan-18 05:23 023 5 gusting 10 7.2
2020-Jan-18 04:23 027 5 gusting 8 7.8
2020-Jan-18 03:23 061 3 gusting 6 7.2
2020-Jan-18 02:23 085 3 gusting 8 7.2
2020-Jan-18 01:23 088 3 gusting 5 7.2
2020-Jan-18 00:23 088 4 gusting 7 7.8
2020-Jan-17 23:23 100 4 gusting 12 8.3
2020-Jan-17 22:23 100 7 gusting 13 10.6
2020-Jan-17 21:23 106 7 gusting 13 12.8
2020-Jan-17 20:23 087 6 gusting 13 13.9
2020-Jan-17 19:23 091 9 gusting 15 13.9
2020-Jan-17 18:23 084 9 gusting 15 13.9
2020-Jan-17 17:23 068 8 gusting 16 13.9
2020-Jan-17 16:23 051 9 gusting 17 13.3
2020-Jan-17 15:23 066 9 gusting 22 12.8
2020-Jan-17 14:23 059 12 gusting 19 11.7
2020-Jan-17 13:23 030 6 gusting 8 9.4
2020-Jan-17 12:23 014 4 gusting 6 8.3
2020-Jan-17 11:23 028 3 gusting 6 8.9
2020-Jan-17 10:23 024 4 gusting 6 10.0
2020-Jan-17 09:23 016 3 gusting 9 10.6
2020-Jan-17 08:23 014 3 gusting 6 11.1
2020-Jan-17 07:23 354 2 gusting 6 11.7
2020-Jan-17 06:23 007 2 gusting 5 11.7
2020-Jan-17 05:23 013 3 gusting 5 12.8
2020-Jan-17 04:23 001 2 gusting 7 13.9
2020-Jan-17 03:23 013 4 gusting 7 15.6
2020-Jan-17 02:23 022 3 gusting 10 16.7
2020-Jan-17 01:23 007 6 gusting 11 18.9
2020-Jan-17 00:23 004 4 gusting 13 19.4
2020-Jan-16 23:23 323 3 gusting 6 18.9
2020-Jan-16 22:23 342 6 gusting 10 22.2
2020-Jan-16 21:23 328 7 gusting 16 23.9
2020-Jan-16 20:23 347 7 gusting 16 25.0
2020-Jan-16 19:23 357 8 gusting 17 25.0
2020-Jan-16 18:23 308 9 gusting 15 24.4
2020-Jan-16 17:23 293 10 gusting 16 23.9
2020-Jan-16 16:23 289 8 gusting 12 21.7
2020-Jan-16 15:23 275 6 gusting 11 19.4
2020-Jan-16 14:23 18.9
2020-Jan-16 13:23 331 3 gusting 5 18.3
2020-Jan-16 12:23 262 2 gusting 5 17.8
2020-Jan-16 11:23 272 3 gusting 6 17.8